• Karta Buzet i okolica (pljusak.com):

  • Tablični prikaz podataka:
  Meteorološka
Postaja
 
Vrijeme
Podataka
 
Temperatura
Zraka
°C
Vlažnost
Zraka
%
Točka
Rosišta
°C
Tlak
Zraka
hPa
Smjer
vjetra
 
Brzina
Vjetra
m/s
Udar
Vjetra
m/s
Ugođaj
Vjetra
°C
Oborine
Danas
mm
UV
Index
 
Brač, Selca 16:35 16.7 78 12.8 1021.7 SE 0.0 0.5 16.7 0.0
Brešca 16:35 13.5 71 8.3 1020.5 SSE 0.0 0.0 13.5 0.0
Buzet, Goričica 16:30 16.5 72 11.4 1016.0 W 0.0 3.2 16.5 0.0
Buzet, Griža 16:35 15.0 81 11.7 1019.9 W 4.0 4.9 13.9 0.4 0.0
Buzet, Srednja Škola 16:35 17.1 71 11.8 1030.0 N 0.0 15.3 17.1 0.0
Buzet, Sveti Ivan 16:35 15.6 80 12.1 1020.8 E 0.0 0.5 15.6 0.2
Buzet, Sveti Martin 16:35 16.2 75 11.7 1019.8 ENE 0.5 0.9 16.2 0.2
Dajla 16:20 15.6 78 11.8 1020.6 WNW 0.5
Draguć 16:35 14.2 76 10.0 1021.1
Gornja Gračenica 16:00 18.1 63 10.9 1021.8 E 0.5 0.5 18.1 0.2
Hum 16:35 16.8 79 13.1 1021.2 SSE 0.0 0.0 16.8 0.0 0.0
Kneževi Vinogradi, Škola 16:35 14.3 73 9.5 1024.9 SE 0.0 0.0 14.3 0.0
Lanišće 16:35 15.5 69 9.9 967.1 SSW 0.0 0.6 15.5 0.0
Livade 16:35 15.6 81 12.2 1018.4 N 0.0 1.1 15.6 0.0
Ogulin, Žegar 16:35 17.4 60 1023.5 ENE 0.0 0.0 0.0
Oklaj 16:35 16.2 58 7.8 1023.3 NW 0.0 0.0 16.2 0.0
Paladini, Vidikovac 16:35 14.9 74 10.3 1020.4 WNW 5.4 6.3 13.4 0.2 0.0
Permani, Stara Pošta 16:35 14.8 66 1024.6 SSW 0.0 0.0 0.0
Poljane 16:35 12.0 57 3.7 1022.0 N 0.0 0.0 12.0 0.0
Poreč, Vranići 16:35 15.3 75 10.9 1018.3 NW 0.8 1.4 15.3 0.0
Požega, Tekija 16:35 16.6 71 11.2 1026.6 ESE 0.5 0.5 16.6 0.0
Pula, Monte Zaro - Zvjezdarnica 16:35 15.8 80 12.3 1023.3 NW 0.9 1.8 16.0 0.0
Rabac, Girandella 16:35 14.8 77 10.8 1023.3 N 0.0
Roč 16:35 14.2 81 11.0 1017.7 NW 0.5 1.8 14.2 0.0
Rovinj, JVP 16:35 15.7 81 1022.7 WNW 2.2 0.2
Split, EBS 16:35 19.7 70 14.1 1019.0 SSE 0.0 0.9 19.7 0.0
Starigrad, Hotel Vicko 16:35 16.9 80 13.4 1019.8 WNW 0.9 2.7 16.9 0.0
Staševica 16:35 14.7 82 11.6 1020.4 SW 0.0 0.0 14.7 0.0
Susak, Gornje selo 16:35 16.1 85 13.5 1024.0 NNE 0.9 1.8 16.4 0.0
Sveta Marina, Rt Sv. Marina 16:35 15.3 78 11.5 WNW 0.7 1.4 15.3 0.0
Ugrini 16:35 14.2 85 11.7 1021.6 NW 0.5 1.3 14.5 0.2
Umag, Nazorova 16:35 14.8 77 10.8 1021.2 NNW 0.0 0.0 14.8 0.0
Varaždin, Rudarska 16:35 17.9 59 9.8 1024.1 SE 0.0 0.5 17.9 0.0 0.0
Varaždin, SIPS 16:35 18.1 60 10.1 1021.9 SW 0.0 0.9 18.1 0.2
Vele Mune 16:35 14.3 69 8.6 1012.9 SSW 0.9 0.9 14.3 0.2
Veli Mlun 16:35 15.5 77 11.5 W 0.0 0.0 15.5 0.0
Višnjan, Osnovna Škola 16:35 13.5 82 10.5 1021.1 WSW 0.0 0.0 13.5 0.2
Višnjan, Zvjezdarnica 16:35 14.1 87 12.0 NNE 0.0 0.0 14.1 0.0
Vodnjan 16:35 14.8 85 12.3 1021.6 NNW 14.8 0.2
Vrh 16:35 14.8 75 10.4 1016.7 W 0.0 0.0 14.8 0.0
Zadvarje 16:35 16.3 1021.5 ESE 0.5 1.3 0.0
Zagreb, Ferenščica 16:35 16.5 69 10.8 1022.9 ESE 0.0 0.0 16.5 0.0
Zamask 16:35 13.6 78 1015.1 NW 0.0 0.0 0.0


Statistika

  SVE POSTAJE
 
OPEN2300
 
DWS
 
Ukupno 49 19 25
Aktivno 43 17 23

  • Satelitske snimke:


  • Radarske snimke:


  • Detektor munja: